createdAt,value
2023-01-27T04:54:30.765Z,496.00
2023-01-27T04:55:30.748Z,495.00
2023-01-27T04:56:30.739Z,495.00
2023-01-27T04:57:30.745Z,495.00
2023-01-27T04:58:30.758Z,496.00
2023-01-27T04:59:30.769Z,496.00
2023-01-27T05:00:30.796Z,496.00
2023-01-27T05:01:30.795Z,500.00
2023-01-27T05:02:30.781Z,500.00
2023-01-27T05:03:30.779Z,499.00
2023-01-27T05:04:30.772Z,497.00
2023-01-27T05:05:30.795Z,499.00
2023-01-27T05:06:30.784Z,497.00
2023-01-27T05:07:32.236Z,498.00
2023-01-27T05:08:30.789Z,496.00
2023-01-27T05:09:30.793Z,496.00
2023-01-27T05:10:30.791Z,496.00
2023-01-27T05:11:30.897Z,493.00
2023-01-27T05:12:30.812Z,490.00
2023-01-27T05:13:30.790Z,492.00
2023-01-27T05:14:30.795Z,493.00
2023-01-27T05:15:30.848Z,492.00
2023-01-27T05:16:30.844Z,493.00
2023-01-27T05:17:30.806Z,491.00
2023-01-27T05:18:30.803Z,491.00
2023-01-27T05:19:30.795Z,492.00
2023-01-27T05:20:30.806Z,494.00
2023-01-27T05:21:30.838Z,493.00
2023-01-27T05:22:30.803Z,493.00
2023-01-27T05:23:30.817Z,493.00
2023-01-27T05:24:30.878Z,493.00
2023-01-27T05:25:30.831Z,492.00
2023-01-27T05:26:30.797Z,492.00
2023-01-27T05:27:30.795Z,493.00
2023-01-27T05:28:30.786Z,495.00
2023-01-27T05:29:30.790Z,497.00
2023-01-27T05:30:30.826Z,495.00
2023-01-27T05:31:30.898Z,497.00
2023-01-27T05:32:30.794Z,494.00
2023-01-27T05:33:30.837Z,491.00
2023-01-27T05:34:30.791Z,490.00
2023-01-27T05:35:30.821Z,489.00
2023-01-27T05:36:30.805Z,489.00
2023-01-27T05:37:30.802Z,492.00
2023-01-27T05:38:30.810Z,490.00
2023-01-27T05:39:30.814Z,491.00
2023-01-27T05:40:30.815Z,491.00
2023-01-27T05:41:30.792Z,492.00
2023-01-27T05:42:30.795Z,490.00
2023-01-27T05:43:30.804Z,489.00
2023-01-27T05:44:30.812Z,488.00
2023-01-27T05:45:30.810Z,492.00
2023-01-27T05:46:30.876Z,493.00
2023-01-27T05:47:30.802Z,494.00
2023-01-27T05:48:30.830Z,492.00
2023-01-27T05:49:30.841Z,494.00
2023-01-27T05:50:30.801Z,496.00
2023-01-27T05:51:30.821Z,497.00
2023-01-27T05:52:30.819Z,497.00
2023-01-27T05:53:30.847Z,494.00
2023-01-27T05:54:30.845Z,490.00
2023-01-27T05:55:30.829Z,492.00
2023-01-27T05:56:30.836Z,492.00
2023-01-27T05:57:30.830Z,490.00
2023-01-27T05:58:30.837Z,492.00
2023-01-27T05:59:30.834Z,495.00
2023-01-27T06:00:30.860Z,494.00
2023-01-27T06:01:30.897Z,494.00
2023-01-27T06:02:30.882Z,496.00
2023-01-27T06:03:30.845Z,494.00
2023-01-27T06:04:30.828Z,496.00
2023-01-27T06:05:30.853Z,493.00
2023-01-27T06:06:30.836Z,494.00
2023-01-27T06:07:30.830Z,491.00
2023-01-27T06:08:30.853Z,491.00
2023-01-27T06:09:30.890Z,492.00
2023-01-27T06:10:30.862Z,493.00
2023-01-27T06:11:30.866Z,496.00
2023-01-27T06:12:30.870Z,504.00
2023-01-27T06:13:30.878Z,514.00
2023-01-27T06:14:30.888Z,516.00
2023-01-27T06:15:30.904Z,521.00
2023-01-27T06:16:30.973Z,526.00
2023-01-27T06:17:30.905Z,531.00
2023-01-27T06:18:30.917Z,541.00
2023-01-27T06:19:30.907Z,541.00
2023-01-27T06:20:30.886Z,541.00
2023-01-27T06:21:30.881Z,544.00
2023-01-27T06:23:30.904Z,545.00
2023-01-27T06:24:30.948Z,547.00
2023-01-27T06:25:30.885Z,546.00
2023-01-27T06:26:30.867Z,547.00
2023-01-27T06:27:30.878Z,544.00
2023-01-27T06:28:30.874Z,545.00
2023-01-27T06:29:30.854Z,540.00
2023-01-27T06:30:30.882Z,541.00
2023-01-27T06:31:30.899Z,543.00
2023-01-27T06:32:30.838Z,544.00
2023-01-27T06:33:30.838Z,553.00
2023-01-27T06:34:30.881Z,578.00
2023-01-27T06:35:30.837Z,591.00
2023-01-27T06:36:30.819Z,594.00
2023-01-27T06:37:30.833Z,602.00
2023-01-27T06:38:30.820Z,613.00
2023-01-27T06:39:30.847Z,634.00
2023-01-27T06:40:30.843Z,656.00
2023-01-27T06:41:30.808Z,683.00
2023-01-27T06:42:30.781Z,748.00
2023-01-27T06:43:30.783Z,793.00
2023-01-27T06:44:30.780Z,845.00
2023-01-27T06:45:30.777Z,864.00
2023-01-27T06:46:30.867Z,871.00
2023-01-27T06:47:30.753Z,873.00
2023-01-27T06:48:30.737Z,877.00
2023-01-27T06:49:30.752Z,884.00
2023-01-27T06:50:30.749Z,990.00
2023-01-27T06:51:30.716Z,999.00
2023-01-27T06:52:30.720Z,1013.00
2023-01-27T06:53:30.687Z,1030.00
2023-01-27T06:54:30.707Z,1052.00
2023-01-27T06:55:30.674Z,1071.00
2023-01-27T06:56:30.674Z,1087.00
2023-01-27T06:57:30.657Z,1149.00
2023-01-27T06:58:30.668Z,1141.00
2023-01-27T06:59:30.660Z,1132.00
2023-01-27T07:00:30.732Z,1120.00
2023-01-27T07:01:30.674Z,1119.00
2023-01-27T07:02:30.667Z,1122.00
2023-01-27T07:03:30.595Z,1131.00
2023-01-27T07:04:30.607Z,1155.00
2023-01-27T07:05:30.587Z,1172.00
2023-01-27T07:06:30.548Z,1192.00
2023-01-27T07:07:30.559Z,1208.00
2023-01-27T07:08:30.529Z,1225.00
2023-01-27T07:09:35.395Z,1243.00
2023-01-27T07:10:31.499Z,1249.00
2023-01-27T07:11:30.541Z,1254.00
2023-01-27T07:12:30.504Z,1272.00
2023-01-27T07:13:30.443Z,1282.00
2023-01-27T07:14:30.450Z,1317.00
2023-01-27T07:15:30.444Z,1330.00
2023-01-27T07:16:30.455Z,1325.00
2023-01-27T07:17:30.419Z,1328.00
2023-01-27T07:18:30.419Z,1336.00
2023-01-27T07:19:30.398Z,1347.00
2023-01-27T07:20:30.388Z,1361.00
2023-01-27T07:21:30.370Z,1377.00
2023-01-27T07:22:30.368Z,1385.00
2023-01-27T07:23:30.393Z,1391.00
2023-01-27T07:24:30.372Z,1390.00
2023-01-27T07:25:30.289Z,1386.00
2023-01-27T07:26:30.299Z,1384.00
2023-01-27T07:27:30.299Z,1392.00
2023-01-27T07:28:30.275Z,1405.00
2023-01-27T07:29:30.256Z,1418.00
2023-01-27T07:30:30.364Z,1426.00
2023-01-27T07:31:30.320Z,1442.00
2023-01-27T07:32:30.208Z,1449.00
2023-01-27T07:33:30.214Z,1453.00
2023-01-27T07:34:30.241Z,1456.00
2023-01-27T07:35:30.198Z,1461.00
2023-01-27T07:36:30.160Z,1470.00
2023-01-27T07:37:30.146Z,1474.00
2023-01-27T07:38:30.143Z,1483.00
2023-01-27T07:39:30.109Z,1496.00
2023-01-27T07:40:30.111Z,1504.00
2023-01-27T07:41:30.079Z,1506.00
2023-01-27T07:42:30.128Z,1560.00
2023-01-27T07:43:30.030Z,1573.00
2023-01-27T07:44:30.014Z,1601.00
2023-01-27T07:45:30.099Z,1595.00
2023-01-27T07:46:30.000Z,1431.00
2023-01-27T07:47:29.978Z,1324.00
2023-01-27T07:48:29.961Z,1403.00
2023-01-27T07:49:29.941Z,1410.00
2023-01-27T07:50:29.990Z,1428.00
2023-01-27T07:51:29.908Z,1478.00
2023-01-27T07:52:29.902Z,1473.00
2023-01-27T07:53:29.910Z,1472.00
2023-01-27T07:54:29.928Z,1468.00
2023-01-27T07:55:29.891Z,1461.00
2023-01-27T07:56:29.845Z,1457.00
2023-01-27T07:57:29.866Z,1461.00
2023-01-27T07:58:29.833Z,1462.00
2023-01-27T07:59:29.811Z,1510.00
2023-01-27T08:00:29.862Z,1532.00
2023-01-27T08:01:29.774Z,1561.00
2023-01-27T08:02:29.743Z,1560.00
2023-01-27T08:03:29.855Z,1558.00
2023-01-27T08:04:31.639Z,1558.00
2023-01-27T08:05:30.790Z,1578.00
2023-01-27T08:06:29.684Z,1594.00
2023-01-27T08:07:29.648Z,1602.00
2023-01-27T08:08:29.635Z,1598.00
2023-01-27T08:09:29.620Z,1591.00
2023-01-27T08:10:29.630Z,1585.00
2023-01-27T08:11:29.566Z,1593.00
2023-01-27T08:12:29.552Z,1601.00
2023-01-27T08:13:29.555Z,1604.00
2023-01-27T08:14:29.529Z,1604.00
2023-01-27T08:15:29.528Z,1604.00
2023-01-27T08:16:29.524Z,1615.00
2023-01-27T08:17:29.467Z,1619.00
2023-01-27T08:18:29.440Z,1659.00
2023-01-27T08:19:29.463Z,1667.00
2023-01-27T08:20:29.444Z,1668.00
2023-01-27T08:21:29.428Z,1669.00
2023-01-27T08:22:29.377Z,1668.00
2023-01-27T08:23:29.370Z,1668.00
2023-01-27T08:24:29.404Z,1667.00
2023-01-27T08:25:29.319Z,1665.00
2023-01-27T08:26:29.291Z,1672.00
2023-01-27T08:27:29.279Z,1682.00
2023-01-27T08:28:29.304Z,1698.00
2023-01-27T08:29:29.228Z,1731.00
2023-01-27T08:30:29.266Z,1765.00
2023-01-27T08:31:29.236Z,1778.00
2023-01-27T08:32:29.215Z,1784.00
2023-01-27T08:33:29.182Z,1798.00
2023-01-27T08:34:29.139Z,1808.00
2023-01-27T08:35:29.174Z,1818.00
2023-01-27T08:36:29.114Z,1829.00
2023-01-27T08:37:29.085Z,1834.00
2023-01-27T08:38:29.081Z,1833.00
2023-01-27T08:39:29.057Z,1833.00
2023-01-27T08:40:29.068Z,1843.00
2023-01-27T08:41:29.031Z,1838.00
2023-01-27T08:42:29.046Z,1827.00
2023-01-27T08:43:28.998Z,1757.00
2023-01-27T08:44:29.005Z,1761.00
2023-01-27T08:45:28.951Z,1752.00
2023-01-27T08:46:29.011Z,1738.00
2023-01-27T08:47:28.976Z,1711.00
2023-01-27T08:48:28.924Z,1692.00
2023-01-27T08:49:28.885Z,1684.00
2023-01-27T08:50:28.867Z,1677.00
2023-01-27T08:51:28.940Z,1648.00
2023-01-27T08:52:28.840Z,1609.00
2023-01-27T08:53:28.831Z,1607.00
2023-01-27T08:54:28.817Z,1589.00
2023-01-27T08:55:29.841Z,1574.00
2023-01-27T08:56:28.798Z,1551.00
2023-01-27T08:57:28.774Z,1536.00
2023-01-27T08:58:28.773Z,1522.00
2023-01-27T08:59:28.774Z,1510.00
2023-01-27T09:00:28.720Z,1502.00
2023-01-27T09:01:28.750Z,1489.00
2023-01-27T09:02:28.690Z,1443.00
2023-01-27T09:03:28.708Z,1441.00
2023-01-27T09:04:28.685Z,1438.00
2023-01-27T09:05:28.640Z,1443.00
2023-01-27T09:06:28.648Z,1444.00
2023-01-27T09:07:28.618Z,1435.00
2023-01-27T09:08:28.647Z,1427.00
2023-01-27T09:09:28.590Z,1418.00
2023-01-27T09:10:28.591Z,1413.00
2023-01-27T09:11:28.596Z,1400.00
2023-01-27T09:12:28.570Z,1388.00
2023-01-27T09:13:28.592Z,1395.00
2023-01-27T09:14:28.557Z,1381.00
2023-01-27T10:08:20.885Z,736.00
2023-01-27T10:09:20.817Z,722.00
2023-01-27T10:10:20.836Z,713.00
2023-01-27T10:11:20.754Z,703.00
2023-01-27T10:12:20.707Z,697.00
2023-01-27T10:13:20.677Z,690.00
2023-01-27T10:14:20.678Z,683.00
2023-01-27T10:15:20.599Z,677.00
2023-01-27T10:16:20.621Z,671.00
2023-01-27T10:17:20.576Z,664.00
2023-01-27T10:18:20.519Z,657.00
2023-01-27T10:19:20.506Z,652.00
2023-01-27T10:20:20.570Z,646.00
2023-01-27T10:21:20.400Z,643.00
2023-01-27T10:22:20.502Z,638.00
2023-01-27T10:23:20.328Z,634.00
2023-01-27T10:24:20.414Z,632.00
2023-01-27T10:25:20.266Z,629.00
2023-01-27T10:26:20.239Z,623.00
2023-01-27T10:27:20.262Z,622.00
2023-01-27T10:28:20.351Z,622.00
2023-01-27T10:29:20.236Z,620.00
2023-01-27T10:30:20.128Z,619.00
2023-01-27T10:31:20.181Z,615.00
2023-01-27T10:32:20.061Z,616.00
2023-01-27T10:33:20.047Z,619.00
2023-01-27T10:34:19.952Z,618.00
2023-01-27T10:35:19.915Z,617.00
2023-01-27T10:36:19.909Z,615.00
2023-01-27T10:37:19.941Z,613.00
2023-01-27T10:38:20.135Z,612.00
2023-01-27T10:39:19.812Z,610.00
2023-01-27T10:40:19.768Z,607.00
2023-01-27T10:41:19.724Z,604.00
2023-01-27T10:42:19.696Z,603.00
2023-01-27T10:43:19.751Z,607.00
2023-01-27T10:44:19.680Z,609.00
2023-01-27T10:45:19.629Z,661.00
2023-01-27T10:46:19.571Z,688.00
2023-01-27T10:47:19.752Z,705.00
2023-01-27T10:48:19.556Z,702.00
2023-01-27T10:49:21.560Z,697.00
2023-01-27T10:50:19.594Z,688.00
2023-01-27T10:51:19.426Z,687.00
2023-01-27T10:52:19.452Z,682.00
2023-01-27T10:53:19.812Z,695.00
2023-01-27T10:54:19.377Z,709.00
2023-01-27T10:55:19.382Z,733.00
2023-01-27T10:56:19.340Z,723.00
2023-01-27T10:57:19.469Z,716.00
2023-01-27T10:58:19.825Z,708.00
2023-01-27T10:59:19.342Z,706.00
2023-01-27T11:00:46.518Z,698.00
2023-01-27T11:02:19.809Z,778.00
2023-01-27T11:03:19.294Z,797.00
2023-01-27T11:04:19.214Z,814.00
2023-01-27T11:05:19.672Z,826.00
2023-01-27T11:06:19.133Z,842.00
2023-01-27T11:07:19.185Z,856.00
2023-01-27T11:08:19.147Z,855.00
2023-01-27T11:09:19.065Z,938.00
2023-01-27T11:10:19.014Z,945.00
2023-01-27T11:11:19.037Z,952.00
2023-01-27T11:12:18.963Z,965.00
2023-01-27T11:15:18.924Z,986.00
2023-01-27T11:16:19.301Z,996.00
2023-01-27T11:17:18.802Z,1005.00
2023-01-27T11:18:18.803Z,1015.00
2023-01-27T11:19:18.737Z,1027.00
2023-01-27T11:20:18.673Z,1043.00
2023-01-27T11:21:18.672Z,1072.00
2023-01-27T11:22:18.615Z,1108.00
2023-01-27T11:23:18.646Z,1119.00
2023-01-27T11:24:18.602Z,1125.00
2023-01-27T11:25:18.522Z,1126.00
2023-01-27T11:26:18.460Z,1121.00
2023-01-27T11:27:18.457Z,1126.00
2023-01-27T11:28:18.402Z,1140.00
2023-01-27T11:29:18.495Z,1169.00
2023-01-27T11:30:18.698Z,1201.00
2023-01-27T11:31:18.395Z,1200.00
2023-01-27T11:32:18.291Z,1190.00
2023-01-27T11:33:18.241Z,1189.00
2023-01-27T11:34:18.154Z,1196.00
2023-01-27T11:35:18.308Z,1237.00
2023-01-27T11:36:18.105Z,1248.00
2023-01-27T11:37:18.238Z,1269.00
2023-01-27T11:38:18.036Z,1316.00
2023-01-27T11:39:18.794Z,1317.00
2023-01-27T11:40:17.918Z,1313.00
2023-01-27T11:41:17.881Z,1365.00
2023-01-27T11:42:17.845Z,1362.00
2023-01-27T11:44:17.751Z,1341.00
2023-01-27T11:45:17.732Z,1336.00
2023-01-27T11:46:17.691Z,1334.00
2023-01-27T11:47:17.605Z,1327.00
2023-01-27T11:48:17.767Z,1324.00
2023-01-27T11:49:17.524Z,1325.00
2023-01-27T11:50:17.514Z,1343.00
2023-01-27T11:51:17.458Z,1365.00
2023-01-27T11:52:17.406Z,1359.00
2023-01-27T11:53:17.440Z,1348.00
2023-01-27T11:54:17.321Z,1250.00
2023-01-27T11:55:17.253Z,1249.00
2023-01-27T11:56:17.446Z,1252.00
2023-01-27T11:57:17.226Z,1250.00
2023-01-27T11:58:17.139Z,1253.00
2023-01-27T11:59:17.132Z,1257.00
2023-01-27T12:00:17.206Z,1257.00
2023-01-27T12:01:17.683Z,1245.00
2023-01-27T12:02:17.021Z,1228.00
2023-01-27T12:03:17.377Z,1210.00
2023-01-27T12:04:20.199Z,1206.00
2023-01-27T12:05:19.372Z,1204.00
2023-01-27T12:06:17.807Z,1199.00
2023-01-27T12:07:18.141Z,1193.00
2023-01-27T12:08:16.790Z,1189.00
2023-01-27T12:09:16.935Z,1177.00
2023-01-27T12:10:19.945Z,1166.00
2023-01-27T12:11:16.828Z,1148.00
2023-01-27T12:12:16.642Z,1142.00
2023-01-27T12:13:16.606Z,1139.00
2023-01-27T12:14:16.742Z,1139.00
2023-01-27T12:15:16.527Z,1140.00
2023-01-27T12:16:16.612Z,1144.00
2023-01-27T12:17:16.547Z,1144.00
2023-01-27T12:18:16.457Z,1147.00
2023-01-27T12:19:16.395Z,1143.00
2023-01-27T12:20:16.504Z,1141.00
2023-01-27T12:21:16.348Z,1146.00
2023-01-27T12:22:16.373Z,1085.00
2023-01-27T12:23:16.209Z,1081.00
2023-01-27T12:24:16.188Z,1081.00
2023-01-27T12:25:16.123Z,1079.00
2023-01-27T12:26:16.155Z,1079.00
2023-01-27T12:27:16.060Z,1119.00
2023-01-27T12:28:16.730Z,1136.00
2023-01-27T12:29:15.947Z,1125.00
2023-01-27T12:30:16.265Z,1128.00
2023-01-27T12:31:16.060Z,1127.00
2023-01-27T12:32:15.893Z,1122.00
2023-01-27T12:33:15.789Z,1113.00
2023-01-27T12:34:15.787Z,1085.00
2023-01-27T12:35:15.738Z,1065.00
2023-01-27T12:36:15.666Z,1059.00
2023-01-27T12:37:15.647Z,1046.00
2023-01-27T12:38:15.603Z,1033.00
2023-01-27T12:39:15.561Z,1015.00
2023-01-27T12:40:15.818Z,980.00
2023-01-27T12:41:15.480Z,968.00
2023-01-27T12:42:15.426Z,963.00
2023-01-27T12:43:15.362Z,960.00
2023-01-27T12:44:15.345Z,952.00
2023-01-27T12:45:15.333Z,926.00
2023-01-27T12:46:15.288Z,899.00
2023-01-27T12:47:15.255Z,890.00
2023-01-27T12:48:15.207Z,885.00
2023-01-27T12:49:15.149Z,881.00
2023-01-27T12:50:15.596Z,881.00
2023-01-27T12:51:15.077Z,881.00
2023-01-27T12:52:15.063Z,876.00
2023-01-27T12:53:15.044Z,866.00
2023-01-27T12:54:14.986Z,854.00
2023-01-27T12:55:14.997Z,844.00
2023-01-27T12:56:14.903Z,838.00
2023-01-27T12:57:14.856Z,835.00
2023-01-27T12:58:14.799Z,828.00
2023-01-27T12:59:14.764Z,814.00
2023-01-27T13:00:15.084Z,799.00
2023-01-27T13:01:14.704Z,790.00
2023-01-27T14:24:11.346Z,690.00
2023-01-27T14:25:11.230Z,690.00
2023-01-27T14:26:11.258Z,688.00
2023-01-27T14:27:11.168Z,683.00
2023-01-27T14:28:11.131Z,680.00
2023-01-27T14:30:11.052Z,677.00
2023-01-27T14:31:11.136Z,676.00
2023-01-27T14:32:11.001Z,676.00
2023-01-27T14:33:10.965Z,676.00
2023-01-27T14:34:10.915Z,675.00
2023-01-27T14:35:10.876Z,674.00
2023-01-27T14:36:10.839Z,671.00
2023-01-27T14:37:10.824Z,668.00
2023-01-27T14:38:10.746Z,667.00
2023-01-27T14:39:10.738Z,664.00
2023-01-27T14:40:10.702Z,660.00
2023-01-27T14:41:10.653Z,658.00
2023-01-27T14:42:10.603Z,659.00
2023-01-27T14:43:10.552Z,658.00
2023-01-27T14:44:10.531Z,657.00
2023-01-27T14:45:10.473Z,658.00
2023-01-27T14:46:10.428Z,658.00
2023-01-27T14:47:10.444Z,655.00
2023-01-27T14:48:10.398Z,654.00
2023-01-27T14:49:10.349Z,652.00
2023-01-27T14:50:10.301Z,651.00
2023-01-27T14:51:10.303Z,645.00
2023-01-27T14:52:10.305Z,643.00
2023-01-27T14:53:10.228Z,641.00
2023-01-27T14:54:10.177Z,639.00
2023-01-27T14:55:10.123Z,638.00
2023-01-27T14:56:10.081Z,637.00
2023-01-27T14:57:10.086Z,635.00
2023-01-27T14:58:10.032Z,633.00
2023-01-27T14:59:09.960Z,635.00
2023-01-27T15:00:09.955Z,634.00
2023-01-27T15:01:09.976Z,633.00
2023-01-27T15:02:09.956Z,632.00
2023-01-27T15:03:09.830Z,631.00
2023-01-27T15:04:09.803Z,633.00
2023-01-27T15:05:09.783Z,631.00
2023-01-27T15:06:09.736Z,633.00
2023-01-27T15:07:09.747Z,633.00
2023-01-27T15:08:09.642Z,634.00
2023-01-27T15:09:09.654Z,634.00
2023-01-27T15:10:09.600Z,633.00
2023-01-27T15:11:09.571Z,633.00
2023-01-27T15:12:09.569Z,633.00
2023-01-27T15:13:09.475Z,633.00
2023-01-27T15:14:09.435Z,631.00
2023-01-27T15:15:09.412Z,628.00
2023-01-27T15:16:10.331Z,631.00
2023-01-27T15:17:09.401Z,631.00
2023-01-27T15:18:09.330Z,630.00
2023-01-27T15:19:09.249Z,632.00
2023-01-27T15:20:09.227Z,630.00
2023-01-27T15:21:09.169Z,630.00
2023-01-27T15:22:09.172Z,629.00
2023-01-27T15:23:09.128Z,628.00
2023-01-27T15:24:09.119Z,627.00
2023-01-27T15:25:09.036Z,624.00
2023-01-27T15:26:09.048Z,625.00
2023-01-27T15:27:09.066Z,625.00
2023-01-27T15:28:08.953Z,623.00
2023-01-27T15:29:08.898Z,623.00
2023-01-27T15:30:08.864Z,621.00
2023-01-27T15:31:09.032Z,620.00
2023-01-27T15:32:08.911Z,621.00
2023-01-27T15:33:08.772Z,621.00
2023-01-27T15:34:08.749Z,621.00
2023-01-27T15:35:08.695Z,623.00
2023-01-27T15:36:08.649Z,624.00
2023-01-27T15:37:08.646Z,626.00
2023-01-27T15:38:08.614Z,625.00
2023-01-27T15:39:08.560Z,623.00
2023-01-27T15:40:08.584Z,622.00
2023-01-27T15:41:08.471Z,619.00
2023-01-27T15:42:08.426Z,617.00
2023-01-27T15:43:08.374Z,614.00
2023-01-27T15:44:08.337Z,614.00
2023-01-27T15:45:08.342Z,615.00
2023-01-27T15:46:08.390Z,615.00
2023-01-27T15:47:08.292Z,613.00
2023-01-27T15:48:08.276Z,615.00
2023-01-27T15:49:08.167Z,615.00
2023-01-27T15:50:08.170Z,615.00
2023-01-27T15:51:08.132Z,613.00
2023-01-27T15:52:08.082Z,611.00
2023-01-27T15:53:08.418Z,611.00
2023-01-27T15:54:07.988Z,611.00
2023-01-27T15:55:07.937Z,612.00
2023-01-27T15:56:07.920Z,613.00
2023-01-27T15:57:07.910Z,611.00
2023-01-27T15:58:07.871Z,609.00
2023-01-27T15:59:07.822Z,607.00
2023-01-27T16:00:07.827Z,607.00
2023-01-27T16:01:07.812Z,606.00
2023-01-27T16:02:07.762Z,604.00
2023-01-27T16:03:07.736Z,602.00
2023-01-27T16:04:07.652Z,603.00
2023-01-27T16:05:07.652Z,604.00
2023-01-27T16:06:07.602Z,602.00
2023-01-27T16:07:07.571Z,597.00
2023-01-27T16:08:07.572Z,595.00
2023-01-27T16:09:07.516Z,596.00
2023-01-27T16:10:07.484Z,596.00
2023-01-27T16:11:07.429Z,598.00
2023-01-27T16:12:07.395Z,595.00
2023-01-27T16:13:07.395Z,595.00
2023-01-27T16:14:07.320Z,596.00
2023-01-27T16:15:07.282Z,596.00
2023-01-27T16:16:07.271Z,595.00
2023-01-27T16:17:07.220Z,595.00
2023-01-27T16:18:07.208Z,595.00
2023-01-27T16:19:08.601Z,596.00
2023-01-27T16:20:07.116Z,597.00
2023-01-27T16:21:07.111Z,598.00
2023-01-27T16:22:07.043Z,599.00
2023-01-27T16:23:07.093Z,602.00
2023-01-27T16:24:07.034Z,600.00
2023-01-27T16:25:06.956Z,601.00
2023-01-27T16:26:06.961Z,601.00
2023-01-27T16:27:06.905Z,600.00
2023-01-27T16:28:06.873Z,600.00
2023-01-27T16:29:06.829Z,598.00
2023-01-27T16:30:06.787Z,597.00
2023-01-27T16:31:06.785Z,595.00
2023-01-27T16:32:06.861Z,593.00
2023-01-27T16:33:06.810Z,592.00
2023-01-27T16:34:06.666Z,592.00
2023-01-27T16:35:06.615Z,593.00
2023-01-27T16:36:06.579Z,590.00
2023-01-27T16:37:06.567Z,591.00
2023-01-27T16:38:06.540Z,592.00
2023-01-27T16:39:06.998Z,592.00
2023-01-27T16:40:06.453Z,591.00
2023-01-27T16:41:06.419Z,590.00
2023-01-27T16:42:06.402Z,588.00
2023-01-27T16:43:06.359Z,588.00
2023-01-27T16:44:06.312Z,588.00
2023-01-27T16:45:06.258Z,588.00
2023-01-27T16:46:06.264Z,589.00
2023-01-27T16:47:16.456Z,592.00
2023-01-27T16:48:07.163Z,589.00
2023-01-27T16:49:06.158Z,587.00
2023-01-27T16:50:06.175Z,587.00
2023-01-27T16:51:06.090Z,588.00
2023-01-27T16:52:06.058Z,592.00
2023-01-27T16:53:06.005Z,591.00
2023-01-27T16:54:05.970Z,592.00
2023-01-27T16:55:05.917Z,594.00
2023-01-27T16:56:05.895Z,593.00
2023-01-27T16:57:05.887Z,593.00
2023-01-27T16:58:05.843Z,591.00
2023-01-27T16:59:05.825Z,590.00
2023-01-27T17:00:05.772Z,590.00
2023-01-27T17:01:05.816Z,590.00
2023-01-27T17:02:05.702Z,591.00
2023-01-27T17:03:05.690Z,591.00
2023-01-27T17:04:19.152Z,592.00
2023-01-27T17:06:05.581Z,593.00
2023-01-27T17:07:05.565Z,592.00
2023-01-27T17:08:05.493Z,587.00
2023-01-27T17:09:05.498Z,586.00
2023-01-27T17:10:05.423Z,586.00
2023-01-27T17:11:05.407Z,583.00
2023-01-27T17:12:05.368Z,581.00
2023-01-27T17:13:05.341Z,577.00
2023-01-27T17:14:05.332Z,575.00
2023-01-27T17:15:05.265Z,573.00
2023-01-27T17:16:05.245Z,573.00
2023-01-27T17:17:05.220Z,573.00
2023-01-27T17:18:05.145Z,572.00
2023-01-27T17:19:05.147Z,572.00
2023-01-27T17:20:05.110Z,574.00
2023-01-27T17:21:05.056Z,578.00
2023-01-27T17:22:05.003Z,577.00
2023-01-27T17:23:04.984Z,577.00
2023-01-27T17:24:05.001Z,573.00
2023-01-27T17:25:04.921Z,570.00
2023-01-27T17:26:04.889Z,571.00
2023-01-27T17:27:04.845Z,569.00
2023-01-27T17:28:04.803Z,569.00
2023-01-27T17:29:04.798Z,567.00
2023-01-27T17:30:04.739Z,568.00
2023-01-27T17:31:07.168Z,568.00
2023-01-27T17:32:04.806Z,569.00
2023-01-27T21:14:56.955Z,520.00
2023-01-27T21:15:56.931Z,520.00
2023-01-27T21:16:56.980Z,521.00
2023-01-27T21:17:56.873Z,523.00
2023-01-27T21:18:56.846Z,521.00
2023-01-27T21:19:56.804Z,520.00
2023-01-27T21:20:56.774Z,521.00
2023-01-27T21:21:56.741Z,521.00
2023-01-27T21:22:56.709Z,520.00
2023-01-27T21:23:56.722Z,518.00
2023-01-27T21:24:56.654Z,519.00
2023-01-27T21:25:56.623Z,518.00
2023-01-27T21:26:56.572Z,517.00
2023-01-27T21:27:56.546Z,517.00
2023-01-27T21:28:56.562Z,514.00
2023-01-27T21:29:56.469Z,518.00
2023-01-27T21:30:56.571Z,518.00
2023-01-27T21:31:56.449Z,520.00
2023-01-27T21:32:56.381Z,518.00
2023-01-27T21:33:56.352Z,517.00
2023-01-27T21:34:56.318Z,517.00
2023-01-27T21:35:56.266Z,516.00
2023-01-27T21:36:56.233Z,516.00
2023-01-27T21:37:56.225Z,512.00
2023-01-27T21:38:56.182Z,512.00
2023-01-27T21:39:56.150Z,511.00
2023-01-27T21:40:56.128Z,512.00
2023-01-27T21:41:56.104Z,510.00
2023-01-27T21:42:56.069Z,509.00
2023-01-27T21:43:56.034Z,509.00
2023-01-27T21:44:55.986Z,509.00
2023-01-27T21:45:55.970Z,510.00
2023-01-27T21:46:55.999Z,509.00
2023-01-27T21:47:55.966Z,510.00
2023-01-27T21:48:55.902Z,511.00
2023-01-27T21:49:55.853Z,511.00
2023-01-27T21:50:56.019Z,511.00
2023-01-27T21:51:55.802Z,510.00
2023-01-27T21:52:55.816Z,508.00
2023-01-27T21:53:55.771Z,509.00
2023-01-27T21:54:55.739Z,509.00
2023-01-27T21:55:55.735Z,509.00
2023-01-27T21:56:55.702Z,508.00
2023-01-27T21:57:55.685Z,508.00
2023-01-27T21:58:55.651Z,507.00
2023-01-27T21:59:55.615Z,511.00
2023-01-27T22:00:55.617Z,509.00
2023-01-27T22:01:55.556Z,506.00
2023-01-27T22:02:55.554Z,507.00
2023-01-27T22:03:55.522Z,506.00
2023-01-27T22:04:55.532Z,507.00
2023-01-27T22:05:55.425Z,508.00
2023-01-27T22:06:55.414Z,509.00
2023-01-27T22:07:55.391Z,509.00
2023-01-27T22:08:55.348Z,510.00
2023-01-27T22:09:55.332Z,509.00
2023-01-27T22:10:55.322Z,509.00
2023-01-27T22:11:55.280Z,510.00
2023-01-27T22:12:55.265Z,511.00
2023-01-27T22:13:55.224Z,513.00
2023-01-27T22:14:55.184Z,512.00
2023-01-27T22:15:55.143Z,513.00
2023-01-27T22:16:55.121Z,514.00
2023-01-27T22:17:55.145Z,514.00
2023-01-27T22:18:55.098Z,515.00
2023-01-27T22:19:55.060Z,513.00
2023-01-27T22:20:55.040Z,515.00
2023-01-27T22:21:54.996Z,516.00
2023-01-27T22:22:54.990Z,515.00
2023-01-27T22:23:55.048Z,513.00
2023-01-27T22:24:54.901Z,516.00
2023-01-27T22:25:54.914Z,515.00
2023-01-27T22:26:54.869Z,515.00
2023-01-27T22:27:54.855Z,514.00
2023-01-27T22:28:54.821Z,517.00
2023-01-27T22:29:54.756Z,517.00
2023-01-27T22:30:54.757Z,518.00
2023-01-27T22:31:54.694Z,517.00
2023-01-27T22:33:54.661Z,516.00
